Airfield :
LOGIN :

Register | Disclaimer

   EN    FR    IT 

 










Legend :    VFR   Marginal VFR   IFR   Intensive IFR   Very Intensive IFR
Visi :
Ceiling :
>= 8 km
>= 3000ft
5 to 8 km
1000 to 3000 ft
1500m to 5 km
500 to 1000 ft
800 to 1500m
200 to 500 ft
< 800m
< 200 ft
Symbols :   Thunderstorms  Fog  Heavy snow  Heavy precipitations  Wind > 20 kt
SIGMETs :     Misc.  Thunderstorms  Icing  Turbulence  Mountain Waves  Volcanic Ashes






- Airport Elevation : 416 ft
- IATA code : OVD


LEAS - Asturias

CURRENT METAR :
  • 071900Z 07003KT 9999 FEW005 BKN020 18/17 Q1022 NOSIG

EXPIRED METARs :
  • 071830Z 07003KT 030V100 9999 FEW005 BKN020 18/17 Q1022 NOSIG
  • 071800Z VRB02KT 9999 FEW005 BKN022 18/17 Q1022 NOSIG
  • 071730Z 07004KT 030V110 9999 FEW005 SCT020 BKN040 18/17 Q1022 NOSIG
  • 071700Z 07003KT 030V110 9999 FEW005 SCT020 BKN040 18/17 Q1022 NOSIG
  • 071630Z 05003KT 340V100 9999 FEW005 BKN040 18/17 Q1022 NOSIG

TAF TAF LEAS
Valid from the 07 at 15:00 until the 08 at 15:00 UTC


071400Z 0715/0815 04007KT 9999 FEW005 BKN030 TX20/0813Z TN16/0807Z
PROB40
TEMPO 0718/0807 3000 DZ BR BKN010
PROB30
TEMPO 0722/0804 1500 DZ BCFG BKN005



MET'MAP, your aeronautical weather chart ! - Copyright ORBIFLY December 2007 - Disclaimer

ORBIFLY MET'MAP TEAM :

Programming & Development : Alexandra Zaïnal
Original concept : Baudouin d'Aumeries
Technical & hardware support : Manuel Goepfert
Assistance : Marc-Olivier Méhu




SOURCES & CREDITS :

   NOAA